sensor_id;sensor_type;location;lat;lon;timestamp;pressure;altitude;pressure_sealevel;temperature
79089;BMP280;68489;50.286;9.452;2023-09-30T00:00:23;98135.31;;;14.51
79089;BMP280;68489;50.286;9.452;2023-09-30T00:02:49;98139.03;;;14.44
79089;BMP280;68489;50.286;9.452;2023-09-30T00:05:15;98137.66;;;14.40
79089;BMP280;68489;50.286;9.452;2023-09-30T00:07:40;98130.81;;;14.30
79089;BMP280;68489;50.286;9.452;2023-09-30T00:10:06;98130.75;;;14.20
79089;BMP280;68489;50.286;9.452;2023-09-30T00:12:31;98129.09;;;14.14
79089;BMP280;68489;50.286;9.452;2023-09-30T00:14:57;98129.63;;;14.00
79089;BMP280;68489;50.286;9.452;2023-09-30T00:17:22;98142.09;;;13.93
79089;BMP280;68489;50.286;9.452;2023-09-30T00:19:47;98149.03;;;13.91
79089;BMP280;68489;50.286;9.452;2023-09-30T00:22:13;98142.19;;;13.81
79089;BMP280;68489;50.286;9.452;2023-09-30T00:24:38;98147.31;;;13.75
79089;BMP280;68489;50.286;9.452;2023-09-30T00:27:03;98145.94;;;13.71
79089;BMP280;68489;50.286;9.452;2023-09-30T00:29:28;98152.28;;;13.64
79089;BMP280;68489;50.286;9.452;2023-09-30T00:31:54;98160.13;;;13.58
79089;BMP280;68489;50.286;9.452;2023-09-30T00:34:19;98159.19;;;13.52
79089;BMP280;68489;50.286;9.452;2023-09-30T00:36:44;98164.22;;;13.50
79089;BMP280;68489;50.286;9.452;2023-09-30T00:39:10;98163.19;;;13.48
79089;BMP280;68489;50.286;9.452;2023-09-30T00:41:35;98172.81;;;13.45
79089;BMP280;68489;50.286;9.452;2023-09-30T00:44:03;98172.91;;;13.41
79089;BMP280;68489;50.286;9.452;2023-09-30T00:46:31;98170.25;;;13.41
79089;BMP280;68489;50.286;9.452;2023-09-30T00:48:58;98176.88;;;13.37
79089;BMP280;68489;50.286;9.452;2023-09-30T00:51:25;98186.53;;;13.34
79089;BMP280;68489;50.286;9.452;2023-09-30T00:53:51;98188.88;;;13.32
79089;BMP280;68489;50.286;9.452;2023-09-30T00:56:18;98185.84;;;13.30
79089;BMP280;68489;50.286;9.452;2023-09-30T00:58:45;98187.06;;;13.29
79089;BMP280;68489;50.286;9.452;2023-09-30T01:01:11;98185.59;;;13.28
79089;BMP280;68489;50.286;9.452;2023-09-30T01:03:36;98194.75;;;13.27
79089;BMP280;68489;50.286;9.452;2023-09-30T01:06:02;98186.00;;;13.27
79089;BMP280;68489;50.286;9.452;2023-09-30T01:08:27;98192.84;;;13.28
79089;BMP280;68489;50.286;9.452;2023-09-30T01:10:53;98192.53;;;13.26
79089;BMP280;68489;50.286;9.452;2023-09-30T01:13:19;98192.53;;;13.26
79089;BMP280;68489;50.286;9.452;2023-09-30T01:15:44;98192.84;;;13.28
79089;BMP280;68489;50.286;9.452;2023-09-30T01:18:09;98189.41;;;13.27
79089;BMP280;68489;50.286;9.452;2023-09-30T01:20:35;98190.59;;;13.26
79089;BMP280;68489;50.286;9.452;2023-09-30T01:23:01;98190.25;;;13.24
79089;BMP280;68489;50.286;9.452;2023-09-30T01:25:27;98199.91;;;13.22
79089;BMP280;68489;50.286;9.452;2023-09-30T01:27:53;98201.81;;;13.21
79089;BMP280;68489;50.286;9.452;2023-09-30T01:30:19;98206.44;;;13.21
79089;BMP280;68489;50.286;9.452;2023-09-30T01:32:44;98207.59;;;13.20
79089;BMP280;68489;50.286;9.452;2023-09-30T01:35:10;98206.84;;;13.19
79089;BMP280;68489;50.286;9.452;2023-09-30T01:37:35;98209.22;;;13.17
79089;BMP280;68489;50.286;9.452;2023-09-30T01:40:02;98215.72;;;13.16
79089;BMP280;68489;50.286;9.452;2023-09-30T01:42:28;98232.06;;;13.18
79089;BMP280;68489;50.286;9.452;2023-09-30T01:44:54;98242.31;;;13.20
79089;BMP280;68489;50.286;9.452;2023-09-30T01:47:19;98232.38;;;13.20
79089;BMP280;68489;50.286;9.452;2023-09-30T01:49:44;98215.50;;;13.23
79089;BMP280;68489;50.286;9.452;2023-09-30T01:52:10;98206.63;;;13.26
79089;BMP280;68489;50.286;9.452;2023-09-30T01:54:35;98208.84;;;13.28
79089;BMP280;68489;50.286;9.452;2023-09-30T01:57:00;98212.56;;;13.30
79089;BMP280;68489;50.286;9.452;2023-09-30T01:59:25;98201.47;;;13.32
79089;BMP280;68489;50.286;9.452;2023-09-30T02:01:51;98196.53;;;13.30
79089;BMP280;68489;50.286;9.452;2023-09-30T02:04:16;98199.22;;;13.30
79089;BMP280;68489;50.286;9.452;2023-09-30T02:06:42;98200.84;;;13.28
79089;BMP280;68489;50.286;9.452;2023-09-30T02:09:07;98192.94;;;13.24
79089;BMP280;68489;50.286;9.452;2023-09-30T02:11:35;98197.53;;;13.24
79089;BMP280;68489;50.286;9.452;2023-09-30T02:14:02;98191.88;;;13.22
79089;BMP280;68489;50.286;9.452;2023-09-30T02:16:27;98191.56;;;13.20
79089;BMP280;68489;50.286;9.452;2023-09-30T02:18:52;98184.31;;;13.20
79089;BMP280;68489;50.286;9.452;2023-09-30T02:21:18;98192.19;;;13.24
79089;BMP280;68489;50.286;9.452;2023-09-30T02:23:43;98203.94;;;13.26
79089;BMP280;68489;50.286;9.452;2023-09-30T02:26:13;98208.31;;;13.33
79089;BMP280;68489;50.286;9.452;2023-09-30T02:28:38;98222.59;;;13.39
79089;BMP280;68489;50.286;9.452;2023-09-30T02:31:03;98226.66;;;13.43
79089;BMP280;68489;50.286;9.452;2023-09-30T02:33:29;98229.50;;;13.49
79089;BMP280;68489;50.286;9.452;2023-09-30T02:35:54;98221.38;;;13.53
79089;BMP280;68489;50.286;9.452;2023-09-30T02:38:20;98218.16;;;13.58
79089;BMP280;68489;50.286;9.452;2023-09-30T02:40:47;98223.41;;;13.61
79089;BMP280;68489;50.286;9.452;2023-09-30T02:43:13;98232.19;;;13.62
79089;BMP280;68489;50.286;9.452;2023-09-30T02:45:39;98246.16;;;13.66
79089;BMP280;68489;50.286;9.452;2023-09-30T02:48:04;98244.56;;;13.68
79089;BMP280;68489;50.286;9.452;2023-09-30T02:50:30;98256.72;;;13.70
79089;BMP280;68489;50.286;9.452;2023-09-30T02:52:55;98259.84;;;13.68
79089;BMP280;68489;50.286;9.452;2023-09-30T02:55:20;98261.03;;;13.67
79089;BMP280;68489;50.286;9.452;2023-09-30T02:57:46;98242.72;;;13.65
79089;BMP280;68489;50.286;9.452;2023-09-30T03:00:11;98225.94;;;13.65
79089;BMP280;68489;50.286;9.452;2023-09-30T03:02:49;98205.72;;;13.64
79089;BMP280;68489;50.286;9.452;2023-09-30T03:05:15;98207.25;;;13.65
79089;BMP280;68489;50.286;9.452;2023-09-30T03:07:40;98222.53;;;13.64
79089;BMP280;68489;50.286;9.452;2023-09-30T03:10:07;98232.19;;;13.62
79089;BMP280;68489;50.286;9.452;2023-09-30T03:12:34;98242.13;;;13.61
79089;BMP280;68489;50.286;9.452;2023-09-30T03:14:59;98245.53;;;13.62
79089;BMP280;68489;50.286;9.452;2023-09-30T03:17:25;98247.75;;;13.63
79089;BMP280;68489;50.286;9.452;2023-09-30T03:19:51;98257.59;;;13.66
79089;BMP280;68489;50.286;9.452;2023-09-30T03:22:16;98256.44;;;13.67
79089;BMP280;68489;50.286;9.452;2023-09-30T03:24:41;98250.34;;;13.67
79089;BMP280;68489;50.286;9.452;2023-09-30T03:27:07;98255.69;;;13.67
79089;BMP280;68489;50.286;9.452;2023-09-30T03:29:35;98256.44;;;13.67
79089;BMP280;68489;50.286;9.452;2023-09-30T03:32:01;98262.94;;;13.66
79089;BMP280;68489;50.286;9.452;2023-09-30T03:34:26;98252.69;;;13.65
79089;BMP280;68489;50.286;9.452;2023-09-30T03:36:53;98249.81;;;13.59
79089;BMP280;68489;50.286;9.452;2023-09-30T03:39:20;98251.22;;;13.51
79089;BMP280;68489;50.286;9.452;2023-09-30T03:41:52;98256.69;;;13.48
79089;BMP280;68489;50.286;9.452;2023-09-30T03:44:19;98266.41;;;13.41
79089;BMP280;68489;50.286;9.452;2023-09-30T03:46:44;98267.81;;;13.33
79089;BMP280;68489;50.286;9.452;2023-09-30T03:49:10;98273.72;;;13.28
79089;BMP280;68489;50.286;9.452;2023-09-30T03:51:35;98272.31;;;13.24
79089;BMP280;68489;50.286;9.452;2023-09-30T03:54:02;98261.00;;;13.20
79089;BMP280;68489;50.286;9.452;2023-09-30T03:56:27;98261.13;;;13.16
79089;BMP280;68489;50.286;9.452;2023-09-30T03:58:53;98257.81;;;13.12
79089;BMP280;68489;50.286;9.452;2023-09-30T04:01:18;98251.44;;;13.09
79089;BMP280;68489;50.286;9.452;2023-09-30T04:03:44;98258.78;;;13.05
79089;BMP280;68489;50.286;9.452;2023-09-30T04:06:10;98255.78;;;13.03
79089;BMP280;68489;50.286;9.452;2023-09-30T04:08:35;98258.16;;;13.01
79089;BMP280;68489;50.286;9.452;2023-09-30T04:11:01;98261.03;;;12.94
79089;BMP280;68489;50.286;9.452;2023-09-30T04:13:28;98262.41;;;12.86
79089;BMP280;68489;50.286;9.452;2023-09-30T04:15:54;98264.13;;;12.80
79089;BMP280;68489;50.286;9.452;2023-09-30T04:18:20;98262.44;;;12.73
79089;BMP280;68489;50.286;9.452;2023-09-30T04:20:47;98264.53;;;12.65
79089;BMP280;68489;50.286;9.452;2023-09-30T04:23:12;98267.00;;;12.60
79089;BMP280;68489;50.286;9.452;2023-09-30T04:25:39;98259.94;;;12.53
79089;BMP280;68489;50.286;9.452;2023-09-30T04:28:05;98263.16;;;12.48
79089;BMP280;68489;50.286;9.452;2023-09-30T04:30:30;98262.06;;;12.46
79089;BMP280;68489;50.286;9.452;2023-09-30T04:32:58;98255.34;;;12.41
79089;BMP280;68489;50.286;9.452;2023-09-30T04:35:23;98257.66;;;12.39
79089;BMP280;68489;50.286;9.452;2023-09-30T04:37:50;98265.34;;;12.37
79089;BMP280;68489;50.286;9.452;2023-09-30T04:40:16;98266.94;;;12.34
79089;BMP280;68489;50.286;9.452;2023-09-30T04:42:45;98272.78;;;12.29
79089;BMP280;68489;50.286;9.452;2023-09-30T04:45:12;98279.75;;;12.27
79089;BMP280;68489;50.286;9.452;2023-09-30T04:47:37;98279.81;;;12.23
79089;BMP280;68489;50.286;9.452;2023-09-30T04:50:06;98283.75;;;12.19
79089;BMP280;68489;50.286;9.452;2023-09-30T04:52:33;98288.41;;;12.14
79089;BMP280;68489;50.286;9.452;2023-09-30T04:54:58;98292.69;;;12.12
79089;BMP280;68489;50.286;9.452;2023-09-30T04:57:25;98302.28;;;12.09
79089;BMP280;68489;50.286;9.452;2023-09-30T04:59:51;98304.59;;;12.07
79089;BMP280;68489;50.286;9.452;2023-09-30T05:02:16;98306.59;;;12.03
79089;BMP280;68489;50.286;9.452;2023-09-30T05:04:41;98300.63;;;11.99
79089;BMP280;68489;50.286;9.452;2023-09-30T05:07:07;98303.06;;;11.94
79089;BMP280;68489;50.286;9.452;2023-09-30T05:09:33;98313.88;;;11.86
79089;BMP280;68489;50.286;9.452;2023-09-30T05:11:58;98314.00;;;11.83
79089;BMP280;68489;50.286;9.452;2023-09-30T05:14:23;98299.97;;;11.79
79089;BMP280;68489;50.286;9.452;2023-09-30T05:16:49;98301.66;;;11.73
79089;BMP280;68489;50.286;9.452;2023-09-30T05:19:14;98298.44;;;11.65
79089;BMP280;68489;50.286;9.452;2023-09-30T05:21:39;98293.63;;;11.60
79089;BMP280;68489;50.286;9.452;2023-09-30T05:24:05;98292.59;;;11.54
79089;BMP280;68489;50.286;9.452;2023-09-30T05:26:31;98284.34;;;11.48
79089;BMP280;68489;50.286;9.452;2023-09-30T05:28:56;98279.53;;;11.43
79089;BMP280;68489;50.286;9.452;2023-09-30T05:31:21;98273.53;;;11.39
79089;BMP280;68489;50.286;9.452;2023-09-30T05:33:46;98277.78;;;11.36
79089;BMP280;68489;50.286;9.452;2023-09-30T05:36:12;98288.84;;;11.35
79089;BMP280;68489;50.286;9.452;2023-09-30T05:38:39;98291.53;;;11.35
79089;BMP280;68489;50.286;9.452;2023-09-30T05:41:04;98296.84;;;11.35
79089;BMP280;68489;50.286;9.452;2023-09-30T05:43:31;98298.00;;;11.34
79089;BMP280;68489;50.286;9.452;2023-09-30T05:45:57;98306.72;;;11.34
79089;BMP280;68489;50.286;9.452;2023-09-30T05:48:23;98310.97;;;11.32
79089;BMP280;68489;50.286;9.452;2023-09-30T05:50:48;98306.72;;;11.34
79089;BMP280;68489;50.286;9.452;2023-09-30T05:53:14;98323.47;;;11.35
79089;BMP280;68489;50.286;9.452;2023-09-30T05:55:40;98323.47;;;11.35
79089;BMP280;68489;50.286;9.452;2023-09-30T05:58:13;98321.47;;;11.39
79089;BMP280;68489;50.286;9.452;2023-09-30T06:00:42;98325.97;;;11.42
79089;BMP280;68489;50.286;9.452;2023-09-30T06:03:08;98335.47;;;11.43
79089;BMP280;68489;50.286;9.452;2023-09-30T06:05:33;98338.03;;;11.47
79089;BMP280;68489;50.286;9.452;2023-09-30T06:08:03;98339.13;;;11.49
79089;BMP280;68489;50.286;9.452;2023-09-30T06:10:29;98340.22;;;11.52
79089;BMP280;68489;50.286;9.452;2023-09-30T06:12:54;98338.63;;;11.54
79089;BMP280;68489;50.286;9.452;2023-09-30T06:15:20;98341.97;;;11.58
79089;BMP280;68489;50.286;9.452;2023-09-30T06:17:49;98341.06;;;11.65
79089;BMP280;68489;50.286;9.452;2023-09-30T06:20:15;98343.88;;;11.74
79089;BMP280;68489;50.286;9.452;2023-09-30T06:22:45;98343.69;;;11.81
79089;BMP280;68489;50.286;9.452;2023-09-30T06:25:17;98345.53;;;11.84
79089;BMP280;68489;50.286;9.452;2023-09-30T06:27:43;98347.69;;;11.89
79089;BMP280;68489;50.286;9.452;2023-09-30T06:30:09;98351.78;;;11.94
79089;BMP280;68489;50.286;9.452;2023-09-30T06:32:35;98347.13;;;11.98
79089;BMP280;68489;50.286;9.452;2023-09-30T06:35:02;98342.78;;;12.04
79089;BMP280;68489;50.286;9.452;2023-09-30T06:37:27;98342.28;;;12.09
79089;BMP280;68489;50.286;9.452;2023-09-30T06:39:54;98343.66;;;12.14
79089;BMP280;68489;50.286;9.452;2023-09-30T06:42:20;98347.28;;;12.20
79089;BMP280;68489;50.286;9.452;2023-09-30T06:44:46;98355.56;;;12.26
79089;BMP280;68489;50.286;9.452;2023-09-30T06:47:11;98356.97;;;12.30
79089;BMP280;68489;50.286;9.452;2023-09-30T06:49:37;98365.72;;;12.31
79089;BMP280;68489;50.286;9.452;2023-09-30T06:52:03;98364.88;;;12.34
79089;BMP280;68489;50.286;9.452;2023-09-30T06:54:28;98371.28;;;12.36
79089;BMP280;68489;50.286;9.452;2023-09-30T06:56:54;98379.63;;;12.38
79089;BMP280;68489;50.286;9.452;2023-09-30T06:59:19;98377.19;;;12.44
79089;BMP280;68489;50.286;9.452;2023-09-30T07:01:44;98379.31;;;12.49
79089;BMP280;68489;50.286;9.452;2023-09-30T07:04:10;98375.44;;;12.54
79089;BMP280;68489;50.286;9.452;2023-09-30T07:06:36;98380.88;;;12.63
79089;BMP280;68489;50.286;9.452;2023-09-30T07:09:02;98381.88;;;12.69
79089;BMP280;68489;50.286;9.452;2023-09-30T07:11:28;98382.75;;;12.79
79089;BMP280;68489;50.286;9.452;2023-09-30T07:13:54;98369.63;;;12.84
79089;BMP280;68489;50.286;9.452;2023-09-30T07:16:19;98370.09;;;12.96
79089;BMP280;68489;50.286;9.452;2023-09-30T07:18:45;98364.53;;;13.03
79089;BMP280;68489;50.286;9.452;2023-09-30T07:21:11;98368.91;;;13.09
79089;BMP280;68489;50.286;9.452;2023-09-30T07:23:37;98369.97;;;13.12
79089;BMP280;68489;50.286;9.452;2023-09-30T07:26:02;98379.91;;;13.24
79089;BMP280;68489;50.286;9.452;2023-09-30T07:28:27;98387.41;;;13.29
79089;BMP280;68489;50.286;9.452;2023-09-30T07:30:53;98384.06;;;13.38
79089;BMP280;68489;50.286;9.452;2023-09-30T07:33:19;98394.22;;;13.43
79089;BMP280;68489;50.286;9.452;2023-09-30T07:35:45;98400.84;;;13.51
79089;BMP280;68489;50.286;9.452;2023-09-30T07:38:10;98396.81;;;13.59
79089;BMP280;68489;50.286;9.452;2023-09-30T07:40:35;98402.34;;;13.65
79089;BMP280;68489;50.286;9.452;2023-09-30T07:43:01;98396.38;;;13.74
79089;BMP280;68489;50.286;9.452;2023-09-30T07:45:26;98390.34;;;13.82
79089;BMP280;68489;50.286;9.452;2023-09-30T07:47:53;98398.56;;;13.88
79089;BMP280;68489;50.286;9.452;2023-09-30T07:50:18;98395.56;;;13.99
79089;BMP280;68489;50.286;9.452;2023-09-30T07:52:44;98391.81;;;13.96
79089;BMP280;68489;50.286;9.452;2023-09-30T07:55:10;98383.69;;;14.00
79089;BMP280;68489;50.286;9.452;2023-09-30T07:57:36;98387.53;;;13.99
79089;BMP280;68489;50.286;9.452;2023-09-30T08:00:01;98393.41;;;14.06
79089;BMP280;68489;50.286;9.452;2023-09-30T08:02:28;98389.84;;;14.09
79089;BMP280;68489;50.286;9.452;2023-09-30T08:04:58;98391.72;;;14.22
79089;BMP280;68489;50.286;9.452;2023-09-30T08:07:24;98390.56;;;14.23
79089;BMP280;68489;50.286;9.452;2023-09-30T08:09:50;98391.50;;;14.29
79089;BMP280;68489;50.286;9.452;2023-09-30T08:12:15;98383.25;;;14.36
79089;BMP280;68489;50.286;9.452;2023-09-30T08:14:40;98391.84;;;14.31
79089;BMP280;68489;50.286;9.452;2023-09-30T08:17:06;98387.84;;;14.35
79089;BMP280;68489;50.286;9.452;2023-09-30T08:19:31;98391.38;;;14.32
79089;BMP280;68489;50.286;9.452;2023-09-30T08:21:57;98382.78;;;14.37
79089;BMP280;68489;50.286;9.452;2023-09-30T08:24:22;98379.38;;;14.37
79089;BMP280;68489;50.286;9.452;2023-09-30T08:26:47;98383.91;;;14.49
79089;BMP280;68489;50.286;9.452;2023-09-30T08:29:12;98386.66;;;14.58
79089;BMP280;68489;50.286;9.452;2023-09-30T08:31:38;98399.72;;;14.56
79089;BMP280;68489;50.286;9.452;2023-09-30T08:34:03;98393.69;;;14.65
79089;BMP280;68489;50.286;9.452;2023-09-30T08:36:29;98386.47;;;14.75
79089;BMP280;68489;50.286;9.452;2023-09-30T08:38:55;98390.69;;;14.85
79089;BMP280;68489;50.286;9.452;2023-09-30T08:41:30;98390.41;;;14.92
79089;BMP280;68489;50.286;9.452;2023-09-30T08:43:59;98396.13;;;15.03
79089;BMP280;68489;50.286;9.452;2023-09-30T08:46:25;98394.22;;;15.13
79089;BMP280;68489;50.286;9.452;2023-09-30T08:48:52;98402.44;;;15.18
79089;BMP280;68489;50.286;9.452;2023-09-30T08:51:18;98414.09;;;15.24
79089;BMP280;68489;50.286;9.452;2023-09-30T08:53:44;98419.47;;;15.43
79089;BMP280;68489;50.286;9.452;2023-09-30T08:56:09;98420.38;;;15.49
79089;BMP280;68489;50.286;9.452;2023-09-30T08:58:36;98425.97;;;15.64
79089;BMP280;68489;50.286;9.452;2023-09-30T09:01:02;98433.47;;;15.87
79089;BMP280;68489;50.286;9.452;2023-09-30T09:03:28;98424.53;;;15.81
79089;BMP280;68489;50.286;9.452;2023-09-30T09:05:57;98433.22;;;16.13
79089;BMP280;68489;50.286;9.452;2023-09-30T09:08:25;98435.28;;;16.09
79089;BMP280;68489;50.286;9.452;2023-09-30T09:13:24;98419.44;;;16.47
79089;BMP280;68489;50.286;9.452;2023-09-30T09:15:50;98432.13;;;16.47
79089;BMP280;68489;50.286;9.452;2023-09-30T09:18:33;98421.38;;;16.47
79089;BMP280;68489;50.286;9.452;2023-09-30T09:21:09;98431.41;;;16.28
79089;BMP280;68489;50.286;9.452;2023-09-30T09:23:45;98439.75;;;16.21
79089;BMP280;68489;50.286;9.452;2023-09-30T09:26:27;98443.00;;;15.88
79089;BMP280;68489;50.286;9.452;2023-09-30T09:28:56;98451.34;;;15.90
79089;BMP280;68489;50.286;9.452;2023-09-30T09:31:23;98452.44;;;16.02
79089;BMP280;68489;50.286;9.452;2023-09-30T09:33:50;98447.53;;;16.19
79089;BMP280;68489;50.286;9.452;2023-09-30T09:36:16;98459.28;;;16.40
79089;BMP280;68489;50.286;9.452;2023-09-30T09:38:50;98469.44;;;16.45
79089;BMP280;68489;50.286;9.452;2023-09-30T09:41:21;98467.31;;;16.58
79089;BMP280;68489;50.286;9.452;2023-09-30T09:43:48;98464.50;;;16.62
79089;BMP280;68489;50.286;9.452;2023-09-30T09:46:16;98463.44;;;16.68
79089;BMP280;68489;50.286;9.452;2023-09-30T09:48:42;98459.66;;;16.84
79089;BMP280;68489;50.286;9.452;2023-09-30T09:51:11;98455.06;;;16.84
79089;BMP280;68489;50.286;9.452;2023-09-30T09:53:39;98457.41;;;16.92
79089;BMP280;68489;50.286;9.452;2023-09-30T09:56:07;98451.13;;;17.04
79089;BMP280;68489;50.286;9.452;2023-09-30T09:58:35;98450.22;;;16.98
79089;BMP280;68489;50.286;9.452;2023-09-30T10:01:03;98448.03;;;16.87
79089;BMP280;68489;50.286;9.452;2023-09-30T10:03:28;98440.47;;;16.76
79089;BMP280;68489;50.286;9.452;2023-09-30T10:05:53;98448.50;;;16.76
79089;BMP280;68489;50.286;9.452;2023-09-30T10:08:21;98439.22;;;16.87
79089;BMP280;68489;50.286;9.452;2023-09-30T10:10:53;98442.97;;;16.80
79089;BMP280;68489;50.286;9.452;2023-09-30T10:13:51;98453.72;;;16.80
79089;BMP280;68489;50.286;9.452;2023-09-30T10:19:15;98447.13;;;16.81
79089;BMP280;68489;50.286;9.452;2023-09-30T10:24:45;98438.31;;;16.90
79089;BMP280;68489;50.286;9.452;2023-09-30T10:40:53;98400.56;;;16.84
79089;BMP280;68489;50.286;9.452;2023-09-30T10:43:38;98399.25;;;16.79
79089;BMP280;68489;50.286;9.452;2023-09-30T10:48:54;98403.00;;;16.64
79089;BMP280;68489;50.286;9.452;2023-09-30T10:51:20;98399.91;;;16.65
79089;BMP280;68489;50.286;9.452;2023-09-30T10:56:14;98400.72;;;16.80
79089;BMP280;68489;50.286;9.452;2023-09-30T10:58:47;98409.53;;;16.81
79089;BMP280;68489;50.286;9.452;2023-09-30T11:01:14;98404.47;;;16.74
79089;BMP280;68489;50.286;9.452;2023-09-30T11:03:43;98400.47;;;16.69
79089;BMP280;68489;50.286;9.452;2023-09-30T11:06:13;98400.63;;;16.66
79089;BMP280;68489;50.286;9.452;2023-09-30T11:08:45;98400.63;;;16.66
79089;BMP280;68489;50.286;9.452;2023-09-30T11:11:12;98406.31;;;16.58
79089;BMP280;68489;50.286;9.452;2023-09-30T11:13:38;98404.81;;;16.67
79089;BMP280;68489;50.286;9.452;2023-09-30T11:16:04;98414.75;;;16.84
79089;BMP280;68489;50.286;9.452;2023-09-30T11:18:30;98404.75;;;16.85
79089;BMP280;68489;50.286;9.452;2023-09-30T11:21:07;98399.50;;;16.91
79089;BMP280;68489;50.286;9.452;2023-09-30T11:23:33;98405.56;;;17.00
79089;BMP280;68489;50.286;9.452;2023-09-30T11:25:58;98416.91;;;17.14
79089;BMP280;68489;50.286;9.452;2023-09-30T11:28:24;98411.59;;;17.28
79089;BMP280;68489;50.286;9.452;2023-09-30T11:30:59;98414.91;;;17.47
79089;BMP280;68489;50.286;9.452;2023-09-30T11:33:25;98420.16;;;17.51
79089;BMP280;68489;50.286;9.452;2023-09-30T11:36:02;98415.84;;;17.68
79089;BMP280;68489;50.286;9.452;2023-09-30T11:38:32;98400.72;;;17.71
79089;BMP280;68489;50.286;9.452;2023-09-30T11:41:05;98391.34;;;17.66
79089;BMP280;68489;50.286;9.452;2023-09-30T11:43:34;98386.47;;;17.55
79089;BMP280;68489;50.286;9.452;2023-09-30T11:46:10;98396.41;;;17.49
79089;BMP280;68489;50.286;9.452;2023-09-30T11:48:56;98404.97;;;17.38
79089;BMP280;68489;50.286;9.452;2023-09-30T11:51:24;98399.03;;;17.25
79089;BMP280;68489;50.286;9.452;2023-09-30T11:53:50;98401.06;;;17.16
79089;BMP280;68489;50.286;9.452;2023-09-30T11:56:15;98396.72;;;17.18
79089;BMP280;68489;50.286;9.452;2023-09-30T11:58:41;98390.78;;;17.05
79089;BMP280;68489;50.286;9.452;2023-09-30T12:01:06;98393.19;;;17.03
79089;BMP280;68489;50.286;9.452;2023-09-30T12:03:32;98383.22;;;16.94
79089;BMP280;68489;50.286;9.452;2023-09-30T12:06:01;98394.28;;;16.96
79089;BMP280;68489;50.286;9.452;2023-09-30T12:08:27;98384.25;;;16.97
79089;BMP280;68489;50.286;9.452;2023-09-30T12:10:54;98388.56;;;17.03
79089;BMP280;68489;50.286;9.452;2023-09-30T12:13:20;98390.47;;;17.12
79089;BMP280;68489;50.286;9.452;2023-09-30T12:15:46;98388.53;;;17.36
79089;BMP280;68489;50.286;9.452;2023-09-30T12:18:11;98386.03;;;17.57
79089;BMP280;68489;50.286;9.452;2023-09-30T12:20:39;98384.09;;;17.57
79089;BMP280;68489;50.286;9.452;2023-09-30T12:23:06;98393.38;;;17.56
79089;BMP280;68489;50.286;9.452;2023-09-30T12:25:31;98385.69;;;17.40
79089;BMP280;68489;50.286;9.452;2023-09-30T12:27:58;98387.28;;;17.47
79089;BMP280;68489;50.286;9.452;2023-09-30T12:30:23;98375.88;;;17.37
79089;BMP280;68489;50.286;9.452;2023-09-30T12:32:49;98380.53;;;17.27
79089;BMP280;68489;50.286;9.452;2023-09-30T12:35:14;98376.41;;;17.17
79089;BMP280;68489;50.286;9.452;2023-09-30T12:37:40;98361.06;;;17.08
79089;BMP280;68489;50.286;9.452;2023-09-30T12:40:06;98356.41;;;17.18
79089;BMP280;68489;50.286;9.452;2023-09-30T12:42:36;98358.59;;;17.20
79089;BMP280;68489;50.286;9.452;2023-09-30T12:45:02;98372.03;;;16.96
79089;BMP280;68489;50.286;9.452;2023-09-30T12:47:30;98363.25;;;16.86
79089;BMP280;68489;50.286;9.452;2023-09-30T12:49:56;98360.63;;;16.77
79089;BMP280;68489;50.286;9.452;2023-09-30T12:52:23;98362.81;;;16.78
79089;BMP280;68489;50.286;9.452;2023-09-30T12:54:49;98362.38;;;16.80
79089;BMP280;68489;50.286;9.452;2023-09-30T12:57:14;98369.03;;;16.94
79089;BMP280;68489;50.286;9.452;2023-09-30T12:59:43;98375.25;;;17.09
79089;BMP280;68489;50.286;9.452;2023-09-30T13:02:11;98376.25;;;17.21
79089;BMP280;68489;50.286;9.452;2023-09-30T13:04:36;98365.16;;;17.28
79089;BMP280;68489;50.286;9.452;2023-09-30T13:07:02;98362.19;;;17.26
79089;BMP280;68489;50.286;9.452;2023-09-30T13:09:28;98355.28;;;17.25
79089;BMP280;68489;50.286;9.452;2023-09-30T13:11:53;98361.72;;;17.27
79089;BMP280;68489;50.286;9.452;2023-09-30T13:14:18;98359.94;;;17.24
79089;BMP280;68489;50.286;9.452;2023-09-30T13:16:43;98346.56;;;17.39
79089;BMP280;68489;50.286;9.452;2023-09-30T13:19:09;98349.00;;;17.52
79089;BMP280;68489;50.286;9.452;2023-09-30T13:21:34;98361.22;;;17.38
79089;BMP280;68489;50.286;9.452;2023-09-30T13:23:59;98350.78;;;17.55
79089;BMP280;68489;50.286;9.452;2023-09-30T13:26:24;98352.44;;;17.52
79089;BMP280;68489;50.286;9.452;2023-09-30T13:28:50;98368.94;;;17.45
79089;BMP280;68489;50.286;9.452;2023-09-30T13:31:15;98360.28;;;17.41
79089;BMP280;68489;50.286;9.452;2023-09-30T13:33:41;98363.19;;;17.28
79089;BMP280;68489;50.286;9.452;2023-09-30T13:36:07;98356.84;;;17.17
79089;BMP280;68489;50.286;9.452;2023-09-30T13:38:32;98367.56;;;17.26
79089;BMP280;68489;50.286;9.452;2023-09-30T13:40:58;98362.34;;;17.22
79089;BMP280;68489;50.286;9.452;2023-09-30T13:43:23;98362.91;;;17.26
79089;BMP280;68489;50.286;9.452;2023-09-30T13:45:48;98361.03;;;17.18
79089;BMP280;68489;50.286;9.452;2023-09-30T13:48:14;98356.16;;;17.31
79089;BMP280;68489;50.286;9.452;2023-09-30T13:50:39;98344.97;;;17.32
79089;BMP280;68489;50.286;9.452;2023-09-30T13:53:05;98324.47;;;17.35
79089;BMP280;68489;50.286;9.452;2023-09-30T13:55:30;98331.44;;;17.42
79089;BMP280;68489;50.286;9.452;2023-09-30T13:57:55;98328.75;;;17.42
79089;BMP280;68489;50.286;9.452;2023-09-30T14:00:21;98320.38;;;17.49
79089;BMP280;68489;50.286;9.452;2023-09-30T14:02:46;98314.91;;;17.58
79089;BMP280;68489;50.286;9.452;2023-09-30T14:05:11;98309.63;;;17.63
79089;BMP280;68489;50.286;9.452;2023-09-30T14:07:38;98309.75;;;17.69
79089;BMP280;68489;50.286;9.452;2023-09-30T14:10:05;98307.13;;;17.75
79089;BMP280;68489;50.286;9.452;2023-09-30T14:12:31;98309.75;;;17.69
79089;BMP280;68489;50.286;9.452;2023-09-30T14:14:57;98319.13;;;17.50
79089;BMP280;68489;50.286;9.452;2023-09-30T14:17:22;98315.25;;;17.51
79089;BMP280;68489;50.286;9.452;2023-09-30T14:19:47;98320.38;;;17.49
79089;BMP280;68489;50.286;9.452;2023-09-30T14:22:12;98319.44;;;17.52
79089;BMP280;68489;50.286;9.452;2023-09-30T14:24:38;98326.66;;;17.46
79089;BMP280;68489;50.286;9.452;2023-09-30T14:27:03;98338.50;;;17.39
79089;BMP280;68489;50.286;9.452;2023-09-30T14:29:30;98333.59;;;17.37
79089;BMP280;68489;50.286;9.452;2023-09-30T14:31:56;98325.84;;;17.30